createdAt,value
2023-05-12T00:00:31.085Z,47.40
2023-05-12T00:02:58.118Z,39.47
2023-05-12T00:05:25.304Z,40.80
2023-05-12T00:07:52.156Z,36.67
2023-05-12T00:10:19.365Z,41.03
2023-05-12T00:12:47.579Z,39.30
2023-05-12T00:15:14.568Z,36.17
2023-05-12T00:17:41.545Z,37.30
2023-05-12T00:20:09.693Z,31.10
2023-05-12T00:22:36.587Z,29.30
2023-05-12T00:25:03.651Z,28.47
2023-05-12T00:27:32.117Z,36.80
2023-05-12T00:29:59.286Z,38.37
2023-05-12T00:32:27.451Z,35.90
2023-05-12T00:34:54.627Z,37.63
2023-05-12T00:37:21.499Z,27.00
2023-05-12T00:39:48.396Z,25.23
2023-05-12T00:42:15.346Z,25.27
2023-05-12T00:44:42.207Z,25.07
2023-05-12T00:47:09.674Z,25.97
2023-05-12T00:49:36.929Z,21.37
2023-05-12T00:52:04.254Z,24.60
2023-05-12T00:54:32.742Z,22.83
2023-05-12T00:56:59.681Z,23.53
2023-05-12T00:59:26.909Z,23.47
2023-05-12T01:01:53.772Z,19.87
2023-05-12T01:04:20.714Z,26.30
2023-05-12T01:07:12.760Z,21.97
2023-05-12T01:09:39.622Z,20.20
2023-05-12T01:12:06.819Z,18.97
2023-05-12T01:14:34.300Z,20.80
2023-05-12T01:17:04.806Z,17.77
2023-05-12T01:19:50.483Z,17.13
2023-05-12T01:22:18.546Z,18.70
2023-05-12T01:25:05.743Z,17.00
2023-05-12T01:27:34.196Z,21.37
2023-05-12T01:30:04.108Z,21.40
2023-05-12T01:32:31.130Z,18.23
2023-05-12T01:34:58.093Z,20.33
2023-05-12T01:37:26.954Z,18.77
2023-05-12T01:39:54.746Z,16.17
2023-05-12T01:42:21.871Z,20.23
2023-05-12T01:44:48.800Z,14.70
2023-05-12T01:47:16.096Z,17.80
2023-05-12T01:49:43.023Z,14.70
2023-05-12T01:52:09.878Z,18.73
2023-05-12T01:54:36.764Z,15.20
2023-05-12T01:57:03.802Z,15.33
2023-05-12T01:59:30.880Z,17.23
2023-05-12T02:01:57.805Z,13.40
2023-05-12T02:04:24.694Z,15.10
2023-05-12T02:06:52.143Z,14.40
2023-05-12T02:09:19.040Z,15.27
2023-05-12T02:11:45.920Z,13.53
2023-05-12T02:14:12.757Z,20.23
2023-05-12T02:16:39.696Z,16.10
2023-05-12T02:19:06.729Z,14.50
2023-05-12T02:21:33.614Z,16.27
2023-05-12T02:24:00.484Z,22.70
2023-05-12T02:26:27.438Z,14.10
2023-05-12T02:28:54.624Z,15.47
2023-05-12T02:31:21.448Z,13.43
2023-05-12T02:33:48.562Z,14.13
2023-05-12T02:36:15.462Z,14.13
2023-05-12T02:38:42.291Z,14.93
2023-05-12T02:41:09.373Z,22.27
2023-05-12T02:43:36.387Z,16.70
2023-05-12T02:46:03.323Z,15.47
2023-05-12T02:48:30.224Z,16.30
2023-05-12T02:50:57.402Z,15.47
2023-05-12T02:53:24.333Z,16.00
2023-05-12T02:55:51.339Z,15.00
2023-05-12T02:58:18.259Z,14.33
2023-05-12T03:00:45.094Z,14.27
2023-05-12T03:03:12.981Z,14.80
2023-05-12T03:05:40.068Z,15.30
2023-05-12T03:08:07.047Z,18.23
2023-05-12T03:10:33.880Z,21.10
2023-05-12T03:13:01.035Z,20.33
2023-05-12T03:15:28.019Z,17.23
2023-05-12T03:17:54.971Z,23.37
2023-05-12T03:20:22.242Z,21.10
2023-05-12T03:22:49.354Z,13.10
2023-05-12T03:25:16.883Z,14.37
2023-05-12T03:27:43.962Z,17.70
2023-05-12T03:30:11.789Z,19.63
2023-05-12T03:32:39.466Z,12.17
2023-05-12T03:35:07.549Z,11.40
2023-05-12T03:37:34.435Z,10.77
2023-05-12T03:40:01.334Z,11.67
2023-05-12T03:42:28.656Z,12.50
2023-05-12T03:44:55.582Z,14.13
2023-05-12T03:47:22.436Z,14.70
2023-05-12T03:49:49.353Z,16.10
2023-05-12T03:52:16.208Z,17.77
2023-05-12T03:54:43.103Z,22.50
2023-05-12T03:57:09.960Z,18.30
2023-05-12T03:59:36.868Z,14.03
2023-05-12T04:02:07.825Z,13.23
2023-05-12T04:04:34.768Z,9.30
2023-05-12T04:07:01.745Z,9.50
2023-05-12T04:09:30.774Z,9.27
2023-05-12T04:11:57.622Z,9.30
2023-05-12T04:14:31.898Z,11.40
2023-05-12T04:17:06.392Z,9.10
2023-05-12T04:19:33.514Z,9.50
2023-05-12T04:22:00.470Z,9.40
2023-05-12T04:24:27.843Z,10.60
2023-05-12T04:26:57.258Z,9.83
2023-05-12T04:29:24.103Z,9.60
2023-05-12T04:31:51.081Z,9.40
2023-05-12T04:34:18.014Z,8.67
2023-05-12T04:36:44.867Z,8.07
2023-05-12T04:39:13.003Z,9.03
2023-05-12T04:41:39.859Z,7.17
2023-05-12T04:44:06.981Z,7.10
2023-05-12T04:46:33.963Z,7.80
2023-05-12T04:49:00.852Z,7.30
2023-05-12T04:51:27.789Z,7.10
2023-05-12T04:53:54.723Z,5.67
2023-05-12T04:56:22.375Z,5.17
2023-05-12T04:58:49.329Z,6.73
2023-05-12T05:01:16.248Z,5.40
2023-05-12T05:03:43.275Z,5.43
2023-05-12T05:06:10.225Z,6.10
2023-05-12T05:08:37.113Z,5.13
2023-05-12T05:11:04.537Z,5.60
2023-05-12T05:13:31.384Z,6.37
2023-05-12T05:15:58.259Z,6.10
2023-05-12T05:18:25.294Z,5.80
2023-05-12T05:20:57.689Z,5.20
2023-05-12T05:23:26.083Z,12.93
2023-05-12T05:25:53.289Z,8.97
2023-05-12T05:28:20.216Z,4.80
2023-05-12T05:30:47.258Z,5.20
2023-05-12T05:33:14.167Z,12.47
2023-05-12T05:35:41.978Z,8.30
2023-05-12T05:38:08.902Z,5.10
2023-05-12T05:40:48.885Z,5.50
2023-05-12T05:43:19.670Z,5.00
2023-05-12T05:45:46.580Z,4.80
2023-05-12T05:48:13.635Z,6.40
2023-05-12T05:50:40.788Z,7.90
2023-05-12T05:53:07.968Z,4.47
2023-05-12T05:55:35.050Z,4.67
2023-05-12T05:58:01.888Z,4.73
2023-05-12T06:00:28.770Z,4.97
2023-05-12T06:02:55.738Z,4.50
2023-05-12T06:05:22.987Z,4.23
2023-05-12T06:07:50.030Z,4.67
2023-05-12T06:10:16.888Z,4.50
2023-05-12T06:12:43.789Z,4.43
2023-05-12T06:15:11.755Z,5.07
2023-05-12T06:17:39.538Z,4.17
2023-05-12T06:20:07.496Z,4.13
2023-05-12T06:22:34.910Z,6.50
2023-05-12T06:25:02.519Z,3.90
2023-05-12T06:27:29.556Z,4.60
2023-05-12T06:29:56.456Z,4.03
2023-05-12T06:32:23.444Z,3.30
2023-05-12T06:34:50.498Z,4.37
2023-05-12T06:37:17.423Z,4.33
2023-05-12T06:39:44.414Z,2.97
2023-05-12T06:42:11.670Z,3.93
2023-05-12T06:44:41.131Z,3.50
2023-05-12T06:47:09.029Z,3.53
2023-05-12T06:49:37.279Z,3.70
2023-05-12T06:52:07.639Z,3.60
2023-05-12T06:54:34.919Z,3.63
2023-05-12T06:57:01.919Z,3.60
2023-05-12T06:59:28.891Z,3.67
2023-05-12T07:01:55.862Z,3.27
2023-05-12T07:04:23.088Z,3.37
2023-05-12T07:06:50.823Z,2.90
2023-05-12T07:09:18.854Z,4.53
2023-05-12T07:11:45.999Z,3.53
2023-05-12T07:14:12.956Z,3.03
2023-05-12T07:16:39.896Z,3.53
2023-05-12T07:19:09.111Z,3.00
2023-05-12T07:21:37.290Z,3.17
2023-05-12T07:24:06.216Z,3.07
2023-05-12T07:26:33.537Z,3.00
2023-05-12T07:29:01.144Z,3.30
2023-05-12T07:31:28.798Z,3.17
2023-05-12T07:33:55.993Z,2.97
2023-05-12T07:36:22.934Z,3.30
2023-05-12T07:38:50.064Z,2.93
2023-05-12T07:41:17.498Z,4.40
2023-05-12T07:43:44.485Z,4.37
2023-05-12T07:46:11.549Z,2.90
2023-05-12T07:48:40.334Z,4.03
2023-05-12T07:51:08.351Z,3.60
2023-05-12T07:53:35.359Z,3.10
2023-05-12T07:56:02.276Z,3.20
2023-05-12T07:58:29.264Z,3.47
2023-05-12T08:00:59.116Z,3.03
2023-05-12T08:03:26.525Z,2.90
2023-05-12T08:05:53.544Z,3.53
2023-05-12T08:08:20.415Z,2.67
2023-05-12T08:10:47.326Z,3.67
2023-05-12T08:13:14.232Z,2.90
2023-05-12T08:15:41.134Z,2.87
2023-05-12T08:18:08.120Z,3.00
2023-05-12T08:20:35.853Z,5.13
2023-05-12T08:23:02.713Z,2.60
2023-05-12T08:25:30.690Z,2.60
2023-05-12T08:27:59.405Z,2.40
2023-05-12T08:30:27.237Z,2.50
2023-05-12T08:32:56.909Z,2.83
2023-05-12T08:35:27.637Z,2.50
2023-05-12T08:37:54.626Z,3.00
2023-05-12T08:40:23.347Z,3.00
2023-05-12T08:43:00.452Z,2.90
2023-05-12T08:45:29.495Z,3.03
2023-05-12T08:47:58.623Z,2.80
2023-05-12T08:50:27.056Z,2.50
2023-05-12T08:52:54.118Z,2.10
2023-05-12T08:55:22.733Z,3.13
2023-05-12T08:57:51.561Z,3.20
2023-05-12T09:00:20.692Z,2.97
2023-05-12T09:02:53.771Z,8.40
2023-05-12T09:05:21.896Z,3.93
2023-05-12T09:07:50.775Z,2.73
2023-05-12T09:10:33.716Z,2.40
2023-05-12T09:13:17.703Z,2.97
2023-05-12T09:15:47.378Z,2.30
2023-05-12T09:18:14.353Z,2.53
2023-05-12T09:20:41.260Z,3.63
2023-05-12T09:23:19.449Z,2.13
2023-05-12T09:25:49.378Z,2.80
2023-05-12T09:28:16.295Z,2.70
2023-05-12T09:30:43.273Z,2.67
2023-05-12T09:33:14.144Z,2.30
2023-05-12T09:35:46.122Z,2.73
2023-05-12T09:38:14.661Z,2.57
2023-05-12T09:40:43.219Z,2.10
2023-05-12T09:43:12.562Z,2.30
2023-05-12T09:45:42.424Z,2.80
2023-05-12T09:48:11.127Z,2.57
2023-05-12T09:50:49.233Z,1.90
2023-05-12T09:53:17.997Z,2.13
2023-05-12T09:55:49.123Z,3.73
2023-05-12T09:58:17.992Z,2.20
2023-05-12T10:01:02.345Z,2.43
2023-05-12T10:03:34.857Z,11.30
2023-05-12T10:06:04.993Z,2.10
2023-05-12T10:08:45.481Z,1.90
2023-05-12T10:11:12.832Z,2.27
2023-05-12T10:13:40.243Z,1.97
2023-05-12T10:16:08.785Z,2.60
2023-05-12T10:18:36.370Z,2.60
2023-05-12T10:21:04.094Z,2.60
2023-05-12T10:23:31.983Z,2.17
2023-05-12T10:26:02.325Z,2.53
2023-05-12T10:28:30.375Z,2.10
2023-05-12T10:30:58.462Z,2.03
2023-05-12T10:33:26.888Z,2.97
2023-05-12T10:35:53.886Z,2.33
2023-05-12T10:38:20.898Z,4.23
2023-05-12T10:41:01.146Z,7.43
2023-05-12T10:43:29.748Z,3.73
2023-05-12T10:46:30.429Z,2.60
2023-05-12T10:49:10.251Z,2.57
2023-05-12T10:52:03.426Z,2.63
2023-05-12T10:54:30.306Z,2.93
2023-05-12T10:57:00.660Z,2.67
2023-05-12T10:59:28.766Z,3.07
2023-05-12T11:02:19.918Z,4.00
2023-05-12T11:05:00.592Z,2.80
2023-05-12T11:07:33.375Z,2.70
2023-05-12T11:10:05.900Z,2.53
2023-05-12T11:12:37.416Z,3.33
2023-05-12T11:15:06.031Z,2.80
2023-05-12T11:17:33.220Z,2.87
2023-05-12T11:20:01.582Z,2.83
2023-05-12T11:22:28.957Z,3.37
2023-05-12T11:24:55.998Z,2.60
2023-05-12T11:27:24.156Z,3.00
2023-05-12T11:30:02.912Z,5.03
2023-05-12T11:32:30.454Z,4.53
2023-05-12T11:35:16.661Z,4.50
2023-05-12T11:37:45.573Z,3.03
2023-05-12T11:40:20.702Z,5.07
2023-05-12T11:42:51.683Z,7.53
2023-05-12T11:45:27.648Z,3.30
2023-05-12T11:48:10.142Z,3.47
2023-05-12T11:50:46.688Z,3.97
2023-05-12T11:53:15.797Z,4.17
2023-05-12T11:55:53.041Z,4.80
2023-05-12T11:58:30.626Z,8.40
2023-05-12T12:01:09.002Z,3.50
2023-05-12T12:03:47.721Z,5.07
2023-05-12T12:06:15.321Z,4.03
2023-05-12T12:08:56.969Z,3.77
2023-05-12T12:11:26.961Z,9.53
2023-05-12T12:13:57.995Z,3.23
2023-05-12T12:16:29.981Z,4.60
2023-05-12T12:18:57.382Z,6.63
2023-05-12T12:21:27.567Z,4.93
2023-05-12T12:23:54.487Z,4.47
2023-05-12T12:26:23.033Z,3.60
2023-05-12T12:28:50.274Z,4.77
2023-05-12T12:31:17.603Z,4.30
2023-05-12T12:33:44.592Z,5.83
2023-05-12T12:36:11.475Z,5.10
2023-05-12T12:38:38.365Z,3.53
2023-05-12T12:41:06.425Z,6.17
2023-05-12T12:43:33.428Z,4.03
2023-05-12T12:46:00.332Z,3.10
2023-05-12T12:48:28.576Z,4.13
2023-05-12T12:50:56.318Z,4.83
2023-05-12T12:53:23.380Z,2.73
2023-05-12T12:55:50.331Z,3.53
2023-05-12T12:58:17.223Z,3.13
2023-05-12T13:00:44.250Z,4.37
2023-05-12T13:03:11.189Z,16.40
2023-05-12T13:05:38.836Z,3.23
2023-05-12T13:08:05.904Z,3.10
2023-05-12T13:10:33.009Z,2.97
2023-05-12T13:13:00.888Z,2.63
2023-05-12T13:15:27.914Z,2.30
2023-05-12T13:17:54.849Z,3.07
2023-05-12T13:20:22.012Z,2.70
2023-05-12T13:22:49.247Z,2.80
2023-05-12T13:25:16.176Z,2.10
2023-05-12T13:27:43.059Z,2.47
2023-05-12T13:30:13.333Z,2.97
2023-05-12T13:32:40.837Z,3.93
2023-05-12T13:35:08.909Z,2.90
2023-05-12T13:37:35.869Z,2.90
2023-05-12T13:40:02.740Z,2.60
2023-05-12T13:42:29.558Z,2.70
2023-05-12T13:44:56.485Z,2.80
2023-05-12T13:47:23.375Z,7.63
2023-05-12T13:49:51.301Z,2.53
2023-05-12T13:52:18.172Z,10.13
2023-05-12T13:54:44.993Z,4.63
2023-05-12T13:57:11.854Z,9.93
2023-05-12T13:59:38.688Z,3.30
2023-05-12T14:02:09.705Z,4.83
2023-05-12T14:04:36.900Z,5.00
2023-05-12T14:07:03.927Z,10.03
2023-05-12T14:09:30.860Z,6.00
2023-05-12T14:11:58.173Z,3.40
2023-05-12T14:14:25.164Z,6.27
2023-05-12T14:16:52.138Z,7.43
2023-05-12T14:19:19.243Z,3.10
2023-05-12T14:21:46.137Z,3.73
2023-05-12T14:24:13.073Z,3.70
2023-05-12T14:26:39.990Z,2.80
2023-05-12T14:29:08.728Z,3.00
2023-05-12T14:31:35.876Z,4.00
2023-05-12T14:34:04.360Z,3.03
2023-05-12T14:36:31.276Z,3.70
2023-05-12T14:38:58.257Z,5.23
2023-05-12T14:41:25.853Z,7.17
2023-05-12T14:43:52.788Z,2.67
2023-05-12T14:46:19.687Z,3.80
2023-05-12T14:48:47.703Z,3.13
2023-05-12T14:51:14.581Z,8.63
2023-05-12T14:53:41.536Z,2.07
2023-05-12T14:56:08.409Z,3.20
2023-05-12T14:58:35.376Z,3.37
2023-05-12T15:01:02.910Z,9.03
2023-05-12T15:03:30.200Z,2.20
2023-05-12T15:06:06.620Z,1.83
2023-05-12T15:08:34.545Z,6.90
2023-05-12T15:11:01.573Z,6.83
2023-05-12T15:13:28.533Z,5.90
2023-05-12T15:15:56.720Z,3.40
2023-05-12T15:18:24.191Z,2.57
2023-05-12T15:20:51.619Z,2.13
2023-05-12T15:23:18.573Z,6.93
2023-05-12T15:25:45.402Z,2.50
2023-05-12T15:28:12.277Z,2.77
2023-05-12T15:30:39.302Z,6.90
2023-05-12T15:33:06.678Z,8.73
2023-05-12T15:35:34.105Z,3.83
2023-05-12T15:38:01.139Z,4.87
2023-05-12T15:40:30.455Z,3.37
2023-05-12T15:42:57.543Z,5.57
2023-05-12T15:45:24.425Z,3.87
2023-05-12T15:47:51.459Z,3.93
2023-05-12T15:50:22.534Z,3.63
2023-05-12T15:52:49.808Z,2.70
2023-05-12T15:55:16.964Z,11.23
2023-05-12T15:57:44.078Z,5.57
2023-05-12T16:00:12.278Z,10.13
2023-05-12T16:02:39.282Z,5.13
2023-05-12T16:05:07.289Z,3.80
2023-05-12T16:07:34.980Z,5.10
2023-05-12T16:10:03.450Z,4.00
2023-05-12T16:12:30.907Z,6.60
2023-05-12T16:14:57.875Z,3.90
2023-05-12T16:17:24.838Z,5.00
2023-05-12T16:19:53.678Z,3.90
2023-05-12T16:22:20.769Z,5.07
2023-05-12T16:24:47.920Z,4.57
2023-05-12T16:27:15.249Z,4.23
2023-05-12T16:29:45.557Z,6.00
2023-05-12T16:32:12.933Z,4.37
2023-05-12T16:34:39.904Z,3.90
2023-05-12T16:37:06.762Z,12.37
2023-05-12T16:39:35.881Z,3.80
2023-05-12T16:42:03.168Z,4.70
2023-05-12T16:44:30.131Z,4.00
2023-05-12T16:46:57.134Z,3.93
2023-05-12T16:49:24.076Z,5.30
2023-05-12T16:51:50.924Z,8.53
2023-05-12T16:54:18.575Z,13.03
2023-05-12T16:56:45.577Z,7.90
2023-05-12T16:59:12.517Z,7.03
2023-05-12T17:01:39.722Z,5.23
2023-05-12T17:04:08.063Z,6.00
2023-05-12T17:06:35.070Z,14.30
2023-05-12T17:09:02.208Z,9.10
2023-05-12T17:11:29.213Z,12.30
2023-05-12T17:13:56.256Z,4.63
2023-05-12T17:16:23.437Z,4.10
2023-05-12T17:21:20.254Z,6.03
2023-05-12T17:23:47.319Z,9.90
2023-05-12T17:26:14.943Z,4.37
2023-05-12T17:28:42.440Z,3.90
2023-05-12T17:31:09.411Z,4.37
2023-05-12T17:33:36.359Z,4.20
2023-05-12T17:36:12.275Z,7.17
2023-05-12T17:38:40.140Z,5.50
2023-05-12T17:41:07.061Z,6.93
2023-05-12T17:43:33.942Z,5.77
2023-05-12T17:46:01.120Z,7.07
2023-05-12T17:48:31.089Z,8.93
2023-05-12T17:50:57.947Z,4.73
2023-05-12T17:53:24.928Z,4.30
2023-05-12T17:55:51.855Z,4.57
2023-05-12T17:58:18.888Z,13.80
2023-05-12T18:00:45.787Z,5.07
2023-05-12T18:03:12.945Z,4.33
2023-05-12T18:05:39.996Z,9.20
2023-05-12T18:08:08.034Z,4.90
2023-05-12T18:10:35.980Z,4.67
2023-05-12T18:13:03.103Z,5.90
2023-05-12T18:15:30.248Z,12.67
2023-05-12T18:17:58.084Z,6.23
2023-05-12T18:20:25.732Z,5.43
2023-05-12T18:22:52.801Z,10.97
2023-05-12T18:25:20.017Z,10.30
2023-05-12T18:27:48.498Z,10.47
2023-05-12T18:30:15.806Z,8.47
2023-05-12T18:32:42.810Z,5.67
2023-05-12T18:35:09.982Z,4.40
2023-05-12T18:37:36.812Z,5.93
2023-05-12T18:40:05.085Z,18.90
2023-05-12T18:42:32.036Z,6.97
2023-05-12T18:44:59.022Z,5.07
2023-05-12T18:47:26.273Z,5.43
2023-05-12T18:49:53.371Z,5.57
2023-05-12T18:52:21.366Z,5.60
2023-05-12T18:54:49.879Z,15.53
2023-05-12T18:57:17.117Z,6.97
2023-05-12T18:59:44.060Z,5.53
2023-05-12T19:02:11.160Z,6.80
2023-05-12T19:04:39.127Z,4.77
2023-05-12T19:07:09.796Z,7.63
2023-05-12T19:09:37.326Z,11.67
2023-05-12T19:12:06.128Z,7.00
2023-05-12T19:14:33.186Z,7.30
2023-05-12T19:17:00.211Z,9.47
2023-05-12T19:19:27.164Z,7.53
2023-05-12T19:21:54.106Z,8.90
2023-05-12T19:24:24.424Z,7.97
2023-05-12T19:26:51.369Z,6.43
2023-05-12T19:29:18.247Z,11.23
2023-05-12T19:31:45.364Z,7.60
2023-05-12T19:34:12.356Z,7.47
2023-05-12T19:36:39.258Z,9.80
2023-05-12T19:39:06.190Z,9.73
2023-05-12T19:41:33.157Z,6.60
2023-05-12T19:44:00.052Z,5.50
2023-05-12T19:46:27.004Z,12.70
2023-05-12T19:48:53.927Z,9.90
2023-05-12T19:51:20.829Z,6.90
2023-05-12T19:53:47.814Z,14.37
2023-05-12T19:56:14.968Z,9.57
2023-05-12T19:58:41.874Z,7.20
2023-05-12T20:01:08.862Z,7.30
2023-05-12T20:03:35.916Z,7.30
2023-05-12T20:06:02.808Z,9.97
2023-05-12T20:08:29.784Z,7.47
2023-05-12T20:10:56.682Z,7.00
2023-05-12T20:13:23.576Z,11.90
2023-05-12T20:15:50.526Z,16.03
2023-05-12T20:18:17.456Z,11.40
2023-05-12T20:20:44.434Z,14.90
2023-05-12T20:23:11.296Z,18.10
2023-05-12T20:25:38.221Z,10.83
2023-05-12T20:28:05.267Z,13.13
2023-05-12T20:30:32.140Z,13.83
2023-05-12T20:32:59.109Z,16.20
2023-05-12T20:35:27.020Z,13.40
2023-05-12T20:37:54.046Z,18.17
2023-05-12T20:40:21.082Z,12.67
2023-05-12T20:42:48.461Z,10.67
2023-05-12T20:45:16.384Z,10.50
2023-05-12T20:47:43.315Z,8.00
2023-05-12T20:50:11.978Z,8.90
2023-05-12T20:52:40.408Z,10.23
2023-05-12T20:55:08.089Z,8.50
2023-05-12T20:57:35.187Z,6.97
2023-05-12T21:00:02.209Z,10.80
2023-05-12T21:02:29.569Z,11.60
2023-05-12T21:04:56.984Z,12.30
2023-05-12T21:07:23.945Z,7.63
2023-05-12T21:09:50.866Z,10.53
2023-05-12T21:12:17.847Z,7.03
2023-05-12T21:14:45.327Z,9.17
2023-05-12T21:17:13.048Z,6.30
2023-05-12T21:19:41.040Z,6.67
2023-05-12T21:22:10.477Z,7.50
2023-05-12T21:24:38.049Z,9.13
2023-05-12T21:27:06.057Z,7.30
2023-05-12T21:29:33.964Z,17.53
2023-05-12T21:32:01.559Z,7.27
2023-05-12T21:34:28.616Z,6.87
2023-05-12T21:36:55.536Z,9.53
2023-05-12T21:39:22.783Z,13.40
2023-05-12T21:41:49.751Z,13.27
2023-05-12T21:44:16.701Z,6.60
2023-05-12T21:46:43.643Z,7.03
2023-05-12T21:49:10.762Z,6.77
2023-05-12T21:51:37.649Z,7.87
2023-05-12T21:54:04.735Z,7.10
2023-05-12T21:56:31.640Z,7.03
2023-05-12T21:58:58.554Z,6.67
2023-05-12T22:01:25.524Z,10.73
2023-05-12T22:03:52.440Z,9.13
2023-05-12T22:06:19.383Z,7.30
2023-05-12T22:08:46.290Z,11.67
2023-05-12T22:11:13.219Z,6.50
2023-05-12T22:13:40.266Z,8.23
2023-05-12T22:16:07.401Z,6.47
2023-05-12T22:18:35.150Z,7.07
2023-05-12T22:21:02.144Z,11.13
2023-05-12T22:23:29.090Z,10.37
2023-05-12T22:25:56.098Z,8.67
2023-05-12T22:28:22.974Z,7.80
2023-05-12T22:30:49.903Z,7.53
2023-05-12T22:33:16.783Z,8.60
2023-05-12T22:35:43.660Z,8.50
2023-05-12T22:38:10.758Z,9.83
2023-05-12T22:40:37.774Z,9.00
2023-05-12T22:43:04.741Z,9.23
2023-05-12T22:45:31.581Z,13.53
2023-05-12T22:47:58.556Z,12.43
2023-05-12T22:50:25.492Z,10.20
2023-05-12T22:52:57.214Z,10.23
2023-05-12T22:55:30.712Z,13.93
2023-05-12T22:57:58.434Z,13.00
2023-05-12T23:00:25.428Z,11.13
2023-05-12T23:02:52.453Z,22.27
2023-05-12T23:05:19.633Z,11.80
2023-05-12T23:07:47.100Z,13.83
2023-05-12T23:10:14.236Z,10.73
2023-05-12T23:12:41.357Z,17.73
2023-05-12T23:15:08.921Z,17.27
2023-05-12T23:17:35.965Z,13.00
2023-05-12T23:20:03.025Z,11.63
2023-05-12T23:22:29.915Z,15.13
2023-05-12T23:24:58.305Z,14.20
2023-05-12T23:27:25.977Z,18.63
2023-05-12T23:29:53.440Z,12.83
2023-05-12T23:32:20.577Z,19.53
2023-05-12T23:34:47.610Z,12.00
2023-05-12T23:37:14.548Z,16.80
2023-05-12T23:39:41.443Z,17.13
2023-05-12T23:42:08.392Z,15.23
2023-05-12T23:44:35.355Z,14.87
2023-05-12T23:47:02.252Z,15.10
2023-05-12T23:49:29.516Z,14.50
2023-05-12T23:51:56.523Z,13.03
2023-05-12T23:54:23.454Z,12.30
2023-05-12T23:56:50.504Z,17.70
2023-05-12T23:59:17.345Z,13.03
